Vane Brothers — WDC2297 — position and weather

sailwx.info

Track history (hours):
 
Tides and Currents Weather Stations Pressure Air Temp Water Temp Dewpoint Dewpoint Depression Visibility Wind Speed Wind Dir Waves Ship Positions

Vane Brothers

Owner: Vane Line Bunkering, Inc., Philadelphia, PA. More information available from US FCC via Universal Licensing System and Coast Guard Vessel Documentation Center.

Last reported at 2018-Jan-20 14:55 UTC. Time now 2018-Jan-20 15:32 UTC.
Position N 40°29' W 074°00'.

Length 24 m.

Type: Tug. MMSI: 366990810.

Date/timePositionNaut miles runAvg speedWind from/ knotsBaromVisibWave heightAir tempDewpointWater temp
2018-Jan-20 14:55N 40°29' W 074°00'1 2.6
2018-Jan-20 14:30N 40°29' W 073°59'1 1.8
2018-Jan-20 13:56N 40°29' W 074°00'0 0.2
2018-Jan-20 13:31N 40°29' W 074°00'0 0.0
2018-Jan-20 13:00N 40°29' W 074°00'0 0.0
2018-Jan-20 12:30N 40°29' W 074°00'0 0.0
2018-Jan-20 12:00N 40°29' W 074°00'0 0.0
2018-Jan-20 11:30N 40°29' W 074°00'0 0.0
2018-Jan-20 11:01N 40°29' W 074°00'0 0.0
2018-Jan-20 10:30N 40°29' W 074°00'0 0.0
2018-Jan-20 10:00N 40°29' W 074°00'0 0.0
2018-Jan-20 09:30N 40°29' W 074°00'0 0.0
2018-Jan-20 09:00N 40°29' W 074°00'0 0.0
2018-Jan-20 08:30N 40°29' W 074°00'0 0.0
2018-Jan-20 07:57N 40°29' W 074°00'0 0.0
2018-Jan-20 06:58N 40°29' W 074°00'0 0.0
2018-Jan-20 06:30N 40°29' W 074°00'0 0.2
2018-Jan-20 05:27N 40°29' W 073°60'0 0.4
2018-Jan-20 04:58N 40°29' W 074°00'0 0.0
2018-Jan-20 04:30N 40°29' W 074°00'0 0.0
2018-Jan-20 04:00N 40°29' W 074°00'0 0.0
2018-Jan-20 03:30N 40°29' W 074°00'0 0.0
2018-Jan-20 03:00N 40°29' W 074°00'0 0.0
2018-Jan-20 02:25N 40°29' W 074°00'0 0.0
2018-Jan-20 02:00N 40°29' W 074°00'0 0.0
2018-Jan-20 00:57N 40°29' W 074°00'0 0.8
2018-Jan-20 00:23N 40°29' W 074°01'0 0.9
2018-Jan-19 23:56N 40°29' W 074°00'0 0.0
2018-Jan-19 23:10N 40°29' W 074°00'0 0.0
2018-Jan-19 22:59N 40°29' W 074°00'0 0.0
2018-Jan-19 21:12N 40°29' W 074°00'0 0.0
2018-Jan-19 19:08N 40°29' W 074°00'0 0.0
2018-Jan-19 18:58N 40°29' W 074°00'0 0.0
2018-Jan-19 18:30N 40°29' W 074°00'0 0.1
2018-Jan-19 18:00N 40°29' W 074°00'0 0.0
2018-Jan-19 17:30N 40°29' W 074°00'0 0.0
2018-Jan-19 17:00N 40°29' W 074°00'0 0.2
2018-Jan-19 15:50N 40°29' W 073°60'0 0.6
2018-Jan-19 15:30N 40°29' W 074°00'0 0.0
2018-Jan-19 15:00N 40°29' W 074°00'0 0.0
2018-Jan-19 14:30N 40°29' W 074°00'0 0.0
2018-Jan-19 14:00N 40°29' W 074°00'0 0.0
2018-Jan-19 13:30N 40°29' W 074°00'0 0.0
2018-Jan-19 13:00N 40°29' W 074°00'0 0.0
2018-Jan-19 12:30N 40°29' W 074°00'0 0.0
2018-Jan-19 12:00N 40°29' W 074°00'0 0.0
2018-Jan-19 11:30N 40°29' W 074°00'1 1.9
2018-Jan-19 11:00N 40°29' W 073°59'0 0.2
2018-Jan-19 10:28N 40°29' W 073°59'1 1.7
2018-Jan-19 09:57N 40°29' W 074°00'0 0.2
2018-Jan-19 09:30N 40°29' W 074°00'0 0.0
2018-Jan-19 09:00N 40°29' W 074°00'0 0.0
2018-Jan-19 08:31N 40°29' W 074°00'0 0.0
2018-Jan-19 08:00N 40°29' W 074°00'0 0.0
2018-Jan-19 07:22N 40°29' W 074°00'0 0.0
2018-Jan-19 06:58N 40°29' W 074°00'0 0.0
2018-Jan-19 06:29N 40°29' W 074°00'0 0.0
2018-Jan-19 05:59N 40°29' W 074°00'0 0.1
2018-Jan-19 05:23N 40°29' W 074°00'1 1.4
2018-Jan-19 04:57N 40°29' W 074°01'1 1.3
2018-Jan-19 04:31N 40°29' W 074°00'0 0.0
2018-Jan-19 04:00N 40°29' W 074°00'0 0.0
2018-Jan-19 03:30N 40°29' W 074°00'0 0.0
2018-Jan-19 03:00N 40°29' W 074°00'0 0.0
2018-Jan-19 02:30N 40°29' W 074°00'0 0.0
2018-Jan-19 02:00N 40°29' W 074°00'0 0.1
2018-Jan-18 23:52N 40°29' W 073°60'0 0.2
2018-Jan-18 23:29N 40°29' W 074°00'1 0.9
2018-Jan-18 22:55N 40°29' W 073°59'0 0.5
2018-Jan-18 22:29N 40°29' W 073°60'0 0.6
2018-Jan-18 22:00N 40°29' W 074°00'0 0.0
2018-Jan-18 21:30N 40°29' W 074°00'0 0.0
2018-Jan-18 20:59N 40°29' W 074°00'0 0.0
2018-Jan-18 20:30N 40°29' W 074°00'0 0.0
2018-Jan-18 19:30N 40°29' W 074°00'0 0.0
2018-Jan-18 19:00N 40°29' W 074°00'0 0.0
2018-Jan-18 18:30N 40°29' W 074°00'0 0.0
2018-Jan-18 18:00N 40°29' W 074°00'0 0.0
2018-Jan-18 17:30N 40°29' W 074°00'0 0.0
2018-Jan-18 17:00N 40°29' W 074°00'0 0.0
2018-Jan-18 16:29N 40°29' W 074°00'0 0.0
2018-Jan-18 16:01N 40°29' W 074°00'0 0.0
2018-Jan-18 15:29N 40°29' W 074°00'0 0.0
2018-Jan-18 14:57N 40°29' W 074°00'1 1.3
2018-Jan-18 14:24N 40°29' W 074°01'1 2.9
2018-Jan-18 14:00N 40°28' W 074°01'0 0.0
2018-Jan-18 13:30N 40°28' W 074°01'0 0.0
2018-Jan-18 13:00N 40°28' W 074°01'0 0.0
2018-Jan-18 05:31N 40°28' W 074°01'0 0.0
2018-Jan-18 05:00N 40°28' W 074°01'0 0.0
2018-Jan-18 04:30N 40°28' W 074°01'0 0.0
2018-Jan-18 04:01N 40°28' W 074°01'0 0.0
2018-Jan-18 03:29N 40°28' W 074°01'0 0.0
2018-Jan-18 03:00N 40°28' W 074°01'0 0.0
2018-Jan-18 02:30N 40°28' W 074°01'0 0.0
2018-Jan-18 02:00N 40°28' W 074°01'0 0.0
2018-Jan-18 01:30N 40°28' W 074°01'0 0.0
2018-Jan-18 01:00N 40°28' W 074°01'0 0.0
2018-Jan-18 00:00N 40°28' W 074°01'0 0.0
2018-Jan-17 23:57N 40°28' W 074°01'  
2018-Jan-12 15:00N 40°41' W 074°05'0 0.0
2018-Jan-12 14:31N 40°41' W 074°05'0 0.0
2018-Jan-12 14:00N 40°41' W 074°05'0 0.0
2018-Jan-12 13:30N 40°41' W 074°05'0 0.0
2018-Jan-12 13:01N 40°41' W 074°05'0 0.0
2018-Jan-12 12:30N 40°41' W 074°05'0 0.0
2018-Jan-12 12:00N 40°41' W 074°05'0 0.0
2018-Jan-12 11:30N 40°41' W 074°05'0 0.0
2018-Jan-12 11:01N 40°41' W 074°05'0 0.0
2018-Jan-12 10:30N 40°41' W 074°05'0 0.0
2018-Jan-12 10:01N 40°41' W 074°05'0 0.0
2018-Jan-12 09:31N 40°41' W 074°05'0 0.0
2018-Jan-12 09:01N 40°41' W 074°05'0 0.0
2018-Jan-12 08:30N 40°41' W 074°05'0 0.0
2018-Jan-12 08:01N 40°41' W 074°05'0 0.0
2018-Jan-12 07:31N 40°41' W 074°05'0 0.0
2018-Jan-12 07:01N 40°41' W 074°05'0 0.0
2018-Jan-12 06:31N 40°41' W 074°05'0 0.0
2018-Jan-12 06:01N 40°41' W 074°05'0 0.0
2018-Jan-12 05:30N 40°41' W 074°05'0 0.0
2018-Jan-12 05:01N 40°41' W 074°05'0 0.0
2018-Jan-12 04:30N 40°41' W 074°05'0 0.0
2018-Jan-12 04:01N 40°41' W 074°05'0 0.0
2018-Jan-12 03:30N 40°41' W 074°05'0 0.0
2018-Jan-12 03:01N 40°41' W 074°05'0 0.0
2018-Jan-12 02:30N 40°41' W 074°05'0 0.0
2018-Jan-12 02:00N 40°41' W 074°05'0 0.0
2018-Jan-12 01:31N 40°41' W 074°05'0 0.0
2018-Jan-12 01:00N 40°41' W 074°05'0 0.0
2018-Jan-12 00:30N 40°41' W 074°05'0 0.0
2018-Jan-12 00:00N 40°41' W 074°05'0 0.0
2018-Jan-11 23:31N 40°41' W 074°05'0 0.0
2018-Jan-11 23:00N 40°41' W 074°05'0 0.0
2018-Jan-11 22:30N 40°41' W 074°05'0 0.0
2018-Jan-11 22:01N 40°41' W 074°05'0 0.0
2018-Jan-11 21:30N 40°41' W 074°05'0 0.0
2018-Jan-11 21:01N 40°41' W 074°05'0 0.0
2018-Jan-11 20:31N 40°41' W 074°05'0 0.0
2018-Jan-11 20:00N 40°41' W 074°05'0 0.0
2018-Jan-11 19:31N 40°41' W 074°05'0 0.0
2018-Jan-11 19:00N 40°41' W 074°05'0 0.0
2018-Jan-11 18:30N 40°41' W 074°05'0 0.0
2018-Jan-11 18:00N 40°41' W 074°05'0 0.0
2018-Jan-11 17:30N 40°41' W 074°05'0 0.0
2018-Jan-11 17:01N 40°41' W 074°05'0 0.0
2018-Jan-11 16:30N 40°41' W 074°05'0 0.0
2018-Jan-11 15:59N 40°41' W 074°05'0 0.0
2018-Jan-11 15:30N 40°41' W 074°05'0 0.0
2018-Jan-11 15:01N 40°41' W 074°05'0 0.0
2018-Jan-11 14:29N 40°41' W 074°05'0 0.0
2018-Jan-11 14:01N 40°41' W 074°05'0 0.0
2018-Jan-11 13:30N 40°41' W 074°05'0 0.0
2018-Jan-11 13:01N 40°41' W 074°05'0 0.0
2018-Jan-11 12:30N 40°41' W 074°05'0 0.0
2018-Jan-11 12:00N 40°41' W 074°05'0 0.0
2018-Jan-11 11:30N 40°41' W 074°05'0 0.0
2018-Jan-11 11:00N 40°41' W 074°05'0 0.0
2018-Jan-11 10:31N 40°41' W 074°05'0 0.0
2018-Jan-11 10:01N 40°41' W 074°05'0 0.0
2018-Jan-11 09:31N 40°41' W 074°05'0 0.0
2018-Jan-11 09:00N 40°41' W 074°05'0 0.0
2018-Jan-11 08:30N 40°41' W 074°05'0 0.0
2018-Jan-11 08:01N 40°41' W 074°05'0 0.0
2018-Jan-11 07:31N 40°41' W 074°05'0 0.0
2018-Jan-11 07:01N 40°41' W 074°05'0 0.0
2018-Jan-11 06:31N 40°41' W 074°05'0 0.0
2018-Jan-11 06:01N 40°41' W 074°05'0 0.0
2018-Jan-11 05:29N 40°41' W 074°05'0 0.0
2018-Jan-11 05:00N 40°41' W 074°05'0 0.0
2018-Jan-11 04:30N 40°41' W 074°05'0 0.0
2018-Jan-11 04:00N 40°41' W 074°05'0 0.0
2018-Jan-11 03:30N 40°41' W 074°05'0 0.0
2018-Jan-11 03:01N 40°41' W 074°05'0 0.0
2018-Jan-11 02:31N 40°41' W 074°05'0 0.0
2018-Jan-11 02:00N 40°41' W 074°05'0 0.0
2018-Jan-11 01:31N 40°41' W 074°05'0 0.0
2018-Jan-11 01:00N 40°41' W 074°05'0 0.0
2018-Jan-11 00:30N 40°41' W 074°05'0 0.0
2018-Jan-10 23:59N 40°41' W 074°05'0 0.0
2018-Jan-10 23:30N 40°41' W 074°05'0 0.0
2018-Jan-10 23:00N 40°41' W 074°05'0 0.0
2018-Jan-10 22:30N 40°41' W 074°05'0 0.0
2018-Jan-10 22:01N 40°41' W 074°05'0 0.0
2018-Jan-10 21:30N 40°41' W 074°05'4 6.0
2018-Jan-10 20:52N 40°39' W 074°09'  
Track history (hours):
 
Tides and Currents Weather Stations Pressure Air Temp Water Temp Dewpoint Dewpoint Depression Visibility Wind Speed Wind Dir Waves Ship Positions

Vane Brothers

Owner: Vane Line Bunkering, Inc., Philadelphia, PA. More information available from US FCC via Universal Licensing System and Coast Guard Vessel Documentation Center.

Last reported at 2018-Jan-20 14:55 UTC. Time now 2018-Jan-20 15:32 UTC.
Position N 40°29' W 074°00'.

Length 24 m.

Type: Tug. MMSI: 366990810.

Date/timePositionNaut miles runAvg speedWind from/ knotsBaromVisibWave heightAir tempDewpointWater temp
2018-Jan-20 14:55N 40°29' W 074°00'1 2.6
2018-Jan-20 14:30N 40°29' W 073°59'1 1.8
2018-Jan-20 13:56N 40°29' W 074°00'0 0.2
2018-Jan-20 13:31N 40°29' W 074°00'0 0.0
2018-Jan-20 13:00N 40°29' W 074°00'0 0.0
2018-Jan-20 12:30N 40°29' W 074°00'0 0.0
2018-Jan-20 12:00N 40°29' W 074°00'0 0.0
2018-Jan-20 11:30N 40°29' W 074°00'0 0.0
2018-Jan-20 11:01N 40°29' W 074°00'0 0.0
2018-Jan-20 10:30N 40°29' W 074°00'0 0.0
2018-Jan-20 10:00N 40°29' W 074°00'0 0.0
2018-Jan-20 09:30N 40°29' W 074°00'0 0.0
2018-Jan-20 09:00N 40°29' W 074°00'0 0.0
2018-Jan-20 08:30N 40°29' W 074°00'0 0.0
2018-Jan-20 07:57N 40°29' W 074°00'0 0.0
2018-Jan-20 06:58N 40°29' W 074°00'0 0.0
2018-Jan-20 06:30N 40°29' W 074°00'0 0.2
2018-Jan-20 05:27N 40°29' W 073°60'0 0.4
2018-Jan-20 04:58N 40°29' W 074°00'0 0.0
2018-Jan-20 04:30N 40°29' W 074°00'0 0.0
2018-Jan-20 04:00N 40°29' W 074°00'0 0.0
2018-Jan-20 03:30N 40°29' W 074°00'0 0.0
2018-Jan-20 03:00N 40°29' W 074°00'0 0.0
2018-Jan-20 02:25N 40°29' W 074°00'0 0.0
2018-Jan-20 02:00N 40°29' W 074°00'0 0.0
2018-Jan-20 00:57N 40°29' W 074°00'0 0.8
2018-Jan-20 00:23N 40°29' W 074°01'0 0.9
2018-Jan-19 23:56N 40°29' W 074°00'0 0.0
2018-Jan-19 23:10N 40°29' W 074°00'0 0.0
2018-Jan-19 22:59N 40°29' W 074°00'0 0.0
2018-Jan-19 21:12N 40°29' W 074°00'0 0.0
2018-Jan-19 19:08N 40°29' W 074°00'0 0.0
2018-Jan-19 18:58N 40°29' W 074°00'0 0.0
2018-Jan-19 18:30N 40°29' W 074°00'0 0.1
2018-Jan-19 18:00N 40°29' W 074°00'0 0.0
2018-Jan-19 17:30N 40°29' W 074°00'0 0.0
2018-Jan-19 17:00N 40°29' W 074°00'0 0.2
2018-Jan-19 15:50N 40°29' W 073°60'0 0.6
2018-Jan-19 15:30N 40°29' W 074°00'0 0.0
2018-Jan-19 15:00N 40°29' W 074°00'0 0.0
2018-Jan-19 14:30N 40°29' W 074°00'0 0.0
2018-Jan-19 14:00N 40°29' W 074°00'0 0.0
2018-Jan-19 13:30N 40°29' W 074°00'0 0.0
2018-Jan-19 13:00N 40°29' W 074°00'0 0.0
2018-Jan-19 12:30N 40°29' W 074°00'0 0.0
2018-Jan-19 12:00N 40°29' W 074°00'0 0.0
2018-Jan-19 11:30N 40°29' W 074°00'1 1.9
2018-Jan-19 11:00N 40°29' W 073°59'0 0.2
2018-Jan-19 10:28N 40°29' W 073°59'1 1.7
2018-Jan-19 09:57N 40°29' W 074°00'0 0.2
2018-Jan-19 09:30N 40°29' W 074°00'0 0.0
2018-Jan-19 09:00N 40°29' W 074°00'0 0.0
2018-Jan-19 08:31N 40°29' W 074°00'0 0.0
2018-Jan-19 08:00N 40°29' W 074°00'0 0.0
2018-Jan-19 07:22N 40°29' W 074°00'0 0.0
2018-Jan-19 06:58N 40°29' W 074°00'0 0.0
2018-Jan-19 06:29N 40°29' W 074°00'0 0.0
2018-Jan-19 05:59N 40°29' W 074°00'0 0.1
2018-Jan-19 05:23N 40°29' W 074°00'1 1.4
2018-Jan-19 04:57N 40°29' W 074°01'1 1.3
2018-Jan-19 04:31N 40°29' W 074°00'0 0.0
2018-Jan-19 04:00N 40°29' W 074°00'0 0.0
2018-Jan-19 03:30N 40°29' W 074°00'0 0.0
2018-Jan-19 03:00N 40°29' W 074°00'0 0.0
2018-Jan-19 02:30N 40°29' W 074°00'0 0.0
2018-Jan-19 02:00N 40°29' W 074°00'0 0.1
2018-Jan-18 23:52N 40°29' W 073°60'0 0.2
2018-Jan-18 23:29N 40°29' W 074°00'1 0.9
2018-Jan-18 22:55N 40°29' W 073°59'0 0.5
2018-Jan-18 22:29N 40°29' W 073°60'0 0.6
2018-Jan-18 22:00N 40°29' W 074°00'0 0.0
2018-Jan-18 21:30N 40°29' W 074°00'0 0.0
2018-Jan-18 20:59N 40°29' W 074°00'0 0.0
2018-Jan-18 20:30N 40°29' W 074°00'0 0.0
2018-Jan-18 19:30N 40°29' W 074°00'0 0.0
2018-Jan-18 19:00N 40°29' W 074°00'0 0.0
2018-Jan-18 18:30N 40°29' W 074°00'0 0.0
2018-Jan-18 18:00N 40°29' W 074°00'0 0.0
2018-Jan-18 17:30N 40°29' W 074°00'0 0.0
2018-Jan-18 17:00N 40°29' W 074°00'0 0.0
2018-Jan-18 16:29N 40°29' W 074°00'0 0.0
2018-Jan-18 16:01N 40°29' W 074°00'0 0.0
2018-Jan-18 15:29N 40°29' W 074°00'0 0.0
2018-Jan-18 14:57N 40°29' W 074°00'1 1.3
2018-Jan-18 14:24N 40°29' W 074°01'1 2.9
2018-Jan-18 14:00N 40°28' W 074°01'0 0.0
2018-Jan-18 13:30N 40°28' W 074°01'0 0.0
2018-Jan-18 13:00N 40°28' W 074°01'0 0.0
2018-Jan-18 05:31N 40°28' W 074°01'0 0.0
2018-Jan-18 05:00N 40°28' W 074°01'0 0.0
2018-Jan-18 04:30N 40°28' W 074°01'0 0.0
2018-Jan-18 04:01N 40°28' W 074°01'0 0.0
2018-Jan-18 03:29N 40°28' W 074°01'0 0.0
2018-Jan-18 03:00N 40°28' W 074°01'0 0.0
2018-Jan-18 02:30N 40°28' W 074°01'0 0.0
2018-Jan-18 02:00N 40°28' W 074°01'0 0.0
2018-Jan-18 01:30N 40°28' W 074°01'0 0.0
2018-Jan-18 01:00N 40°28' W 074°01'0 0.0
2018-Jan-18 00:00N 40°28' W 074°01'0 0.0
2018-Jan-17 23:57N 40°28' W 074°01'  
2018-Jan-12 15:00N 40°41' W 074°05'0 0.0
2018-Jan-12 14:31N 40°41' W 074°05'0 0.0
2018-Jan-12 14:00N 40°41' W 074°05'0 0.0
2018-Jan-12 13:30N 40°41' W 074°05'0 0.0
2018-Jan-12 13:01N 40°41' W 074°05'0 0.0
2018-Jan-12 12:30N 40°41' W 074°05'0 0.0
2018-Jan-12 12:00N 40°41' W 074°05'0 0.0
2018-Jan-12 11:30N 40°41' W 074°05'0 0.0
2018-Jan-12 11:01N 40°41' W 074°05'0 0.0
2018-Jan-12 10:30N 40°41' W 074°05'0 0.0
2018-Jan-12 10:01N 40°41' W 074°05'0 0.0
2018-Jan-12 09:31N 40°41' W 074°05'0 0.0
2018-Jan-12 09:01N 40°41' W 074°05'0 0.0
2018-Jan-12 08:30N 40°41' W 074°05'0 0.0
2018-Jan-12 08:01N 40°41' W 074°05'0 0.0
2018-Jan-12 07:31N 40°41' W 074°05'0 0.0
2018-Jan-12 07:01N 40°41' W 074°05'0 0.0
2018-Jan-12 06:31N 40°41' W 074°05'0 0.0
2018-Jan-12 06:01N 40°41' W 074°05'0 0.0
2018-Jan-12 05:30N 40°41' W 074°05'0 0.0
2018-Jan-12 05:01N 40°41' W 074°05'0 0.0
2018-Jan-12 04:30N 40°41' W 074°05'0 0.0
2018-Jan-12 04:01N 40°41' W 074°05'0 0.0
2018-Jan-12 03:30N 40°41' W 074°05'0 0.0
2018-Jan-12 03:01N 40°41' W 074°05'0 0.0
2018-Jan-12 02:30N 40°41' W 074°05'0 0.0
2018-Jan-12 02:00N 40°41' W 074°05'0 0.0
2018-Jan-12 01:31N 40°41' W 074°05'0 0.0
2018-Jan-12 01:00N 40°41' W 074°05'0 0.0
2018-Jan-12 00:30N 40°41' W 074°05'0 0.0
2018-Jan-12 00:00N 40°41' W 074°05'0 0.0
2018-Jan-11 23:31N 40°41' W 074°05'0 0.0
2018-Jan-11 23:00N 40°41' W 074°05'0 0.0
2018-Jan-11 22:30N 40°41' W 074°05'0 0.0
2018-Jan-11 22:01N 40°41' W 074°05'0 0.0
2018-Jan-11 21:30N 40°41' W 074°05'0 0.0
2018-Jan-11 21:01N 40°41' W 074°05'0 0.0
2018-Jan-11 20:31N 40°41' W 074°05'0 0.0
2018-Jan-11 20:00N 40°41' W 074°05'0 0.0
2018-Jan-11 19:31N 40°41' W 074°05'0 0.0
2018-Jan-11 19:00N 40°41' W 074°05'0 0.0
2018-Jan-11 18:30N 40°41' W 074°05'0 0.0
2018-Jan-11 18:00N 40°41' W 074°05'0 0.0
2018-Jan-11 17:30N 40°41' W 074°05'0 0.0
2018-Jan-11 17:01N 40°41' W 074°05'0 0.0
2018-Jan-11 16:30N 40°41' W 074°05'0 0.0
2018-Jan-11 15:59N 40°41' W 074°05'0 0.0
2018-Jan-11 15:30N 40°41' W 074°05'0 0.0
2018-Jan-11 15:01N 40°41' W 074°05'0 0.0
2018-Jan-11 14:29N 40°41' W 074°05'0 0.0
2018-Jan-11 14:01N 40°41' W 074°05'0 0.0
2018-Jan-11 13:30N 40°41' W 074°05'0 0.0
2018-Jan-11 13:01N 40°41' W 074°05'0 0.0
2018-Jan-11 12:30N 40°41' W 074°05'0 0.0
2018-Jan-11 12:00N 40°41' W 074°05'0 0.0
2018-Jan-11 11:30N 40°41' W 074°05'0 0.0
2018-Jan-11 11:00N 40°41' W 074°05'0 0.0
2018-Jan-11 10:31N 40°41' W 074°05'0 0.0
2018-Jan-11 10:01N 40°41' W 074°05'0 0.0
2018-Jan-11 09:31N 40°41' W 074°05'0 0.0
2018-Jan-11 09:00N 40°41' W 074°05'0 0.0
2018-Jan-11 08:30N 40°41' W 074°05'0 0.0
2018-Jan-11 08:01N 40°41' W 074°05'0 0.0
2018-Jan-11 07:31N 40°41' W 074°05'0 0.0
2018-Jan-11 07:01N 40°41' W 074°05'0 0.0
2018-Jan-11 06:31N 40°41' W 074°05'0 0.0
2018-Jan-11 06:01N 40°41' W 074°05'0 0.0
2018-Jan-11 05:29N 40°41' W 074°05'0 0.0
2018-Jan-11 05:00N 40°41' W 074°05'0 0.0
2018-Jan-11 04:30N 40°41' W 074°05'0 0.0
2018-Jan-11 04:00N 40°41' W 074°05'0 0.0
2018-Jan-11 03:30N 40°41' W 074°05'0 0.0
2018-Jan-11 03:01N 40°41' W 074°05'0 0.0
2018-Jan-11 02:31N 40°41' W 074°05'0 0.0
2018-Jan-11 02:00N 40°41' W 074°05'0 0.0
2018-Jan-11 01:31N 40°41' W 074°05'0 0.0
2018-Jan-11 01:00N 40°41' W 074°05'0 0.0
2018-Jan-11 00:30N 40°41' W 074°05'0 0.0
2018-Jan-10 23:59N 40°41' W 074°05'0 0.0
2018-Jan-10 23:30N 40°41' W 074°05'0 0.0
2018-Jan-10 23:00N 40°41' W 074°05'0 0.0
2018-Jan-10 22:30N 40°41' W 074°05'0 0.0
2018-Jan-10 22:01N 40°41' W 074°05'0 0.0
2018-Jan-10 21:30N 40°41' W 074°05'4 6.0
2018-Jan-10 20:52N 40°39' W 074°09'  

Dump ship's entire track history